Linden Hill, New York
Current Conditions -  °F | °C
As of 11:41 PM on Wednesday 22 Oct 2014 (Local Time) from KLGA Reporting Station
Overcast Overcast  
Wind Chill: 52°   Ceiling: 3800
Heat Index: 52°   Visibility: 10mi
Dew Point: 46°   Wind: 23mph
Humidity: 82%   Direction: 10°N
Pressure: 29.72"   Gusts: 35mph
Location:  40.7686°N, 73.8271°W
Report Text: KLGA 230341Z 01020G30KT 10SM FEW017 SCT025 OVC038 11/08 A2972 RMK AO2 PK WND 01036/0314 RAE38 P0011
Loading
Personal Weather Stations






























Interactive Weather Map
Tropical Storm Tracking
New forecast layout! Learn more

10-Day Weather Forecast

Advertisements
Track Severe Weather on mobile